Warning: Javascript must be enabled to use all the features on this page!


Page Loading - Please Wait...

* We've detected you're using a mobile device. Find our Next Generation Station Page here.
Click to hideNews Bulletins

Peak Streamflow for the Nation

USGS 02135000 LITTLE PEE DEE R. AT GALIVANTS FERRY, SC

Horry County, South Carolina
Hydrologic Unit Code 03040204
Latitude  34°03'24.3", Longitude  79°14'51.8" NAD83
Drainage area 2,790  square miles
Gage datum 22.34 feet above NAVD88
Output formats
Table
Graph
Tab-separated file
peakfq (watstore) format
Reselect output format
Water
Year
Date Gage
Height
(feet)
Stream-
flow
(cfs)
1928 1928-09 16.00Bd  
1942 1942-03-14 9.87 11,000
1943 1943-07-18 9.76 10,500
1944 1944-02-24 9.95 11,500
1945 1945-09-23 13.23 26,800
1946 1946-01-02 9.82 11,100
1947 1947-04-20 9.69 10,600
1948 1948-02-18 11.24 17,600
1949 1948-12-04 10.62 14,800
1950 1950-07-18 8.08 4,310
1951 1951-04-16 8.32 4,890
1952 1952-04-02 8.82 6,690
1953 1953-03-19 9.47 9,730
1954 1954-04-15 9.10 7,930
1955 1955-09-11 10.36 13,900
1956 1956-02-14 9.48 9,270
1957 1957-03-13 8.98 7,510
1958 1958-04-07 10.00 12,000
1959 1959-03-10 11.21 17,600
1960 1960-08-02 10.66 14,800
1961 1961-04-18 10.09 12,500
1962 1962-03-18 9.95 11,100
1963 1963-01-27 10.57 15,200
1964 1964-09-17 10.30 13,400
1965 1964-10-09 13.01 27,600
1966 1966-03-11 10.68 15,300
1967 1967-02-20 8.66 6,090
1968 1968-01-19 9.64 10,300
1969 1969-08-10 11.07 17,200
1970 1970-03-27 9.71 10,600
1971 1971-03-08 12.29 25,000
1972 1972-02-08 10.02 12,000
1973 1973-04-10 11.86 22,100
1974 1974-08-12 11.79 21,600
1975 1975-02-26 11.13 13,000
1976 1976-02-04 9.91 8,030
1977 1977-03-28 10.69 10,900
1978 1978-05-15 11.27 12,200
1979 1979-09-11 12.51 20,200
1980 1980-04-01 11.60 14,800
1981 1981-08-23 10.67 11,400
1982 1982-02-20 10.87 11,400
1983 1983-03-22 12.72 24,400
1984 1984-04-05 10.44 10,500
1985 1985-02-15 9.45 6,750
1986 1985-12-13 8.75 5,010
1987 1987-03-06 11.94 18,200
1988 1988-01-28 8.77 6,110
1989 1989-04-17 10.19 8,920
1990 1989-12-17 9.43 6,690
1991 1991-02-04 9.32 6,500
1992 1992-08-23 11.58 17,500
1993 1993-01-14 12.47 22,800
1994 1994-08-23 9.62 7,930
1995 1995-02-24 11.62 17,700
1996 1996-09-14 11.46 17,600
1997 1996-10-13 10.94 13,800
1998 1998-02-08 12.33 22,000
1999 1999-09-22 12.11 20,600
2000 1999-10-23 12.46 22,700
2001 2001-03-25 8.62 4,890
2002 2002-04-14 6.96 2,100
2003 2003-07-22 10.21 10,800
2004 2004-09-15 10.52 11,600
2005 2005-04-02 8.15 3,810
2006 2006-01-06 8.65 4,960
2007 2006-11-28 10.842 15,600
2008 2008-09-16 10.42 12,900
2009 2009-03-09 8.79 5,090
2010 2010-02-12 9.81 10,400
2011 2010-10-07 8.86 5,560
2012 2012-06-03 8.06 3,640
2013 2013-07-08 10.71 16,400
2014 2014-02-21 9.07 6,810
2015 2015-03-04 9.90 10,600
2016 2016-01-05 11.06 17,900
2017 2016-10-12 17.10 59,3009
2018 2018-09-21 17.21 64,7009
2019 2018-12-19 11.22 18,800
2020 2020-06-02 10.78 16,300
2021 2021-02-22 12.94 29,300
2022 2022-01-22 7.66 2,590
2023 2023-09-02 11.17 18,500
?
  Peak Gage-Height Qualification Codes.
?
  Peak Streamflow Qualification Codes.